Latest Coastal Weather Observations for Nullarbor

IDS60701

Issued at 3:51 pm CDT Tuesday 31 March 2015 (issued every 10 minutes, with the page automatically refreshed every 10 minutes)

About coastal observations | Map of coastal stations | Coastal observations for SA | Marine services | Other Formats
Station Details ID: 018106 Name: NULLARBOR Lat: -31.45 Lon: 130.90 Height: 64.0 m
Data from the previous 72 hours. | See also: Recent months at Nullarbor
Date/Time
CDT
Temp

°C
Wind Pressure Rain
since 9am
mm
Weather Cloud Vis
km
Sea
Height
m
Swell
Dir
 
Speed
knots
Gust
knots
hPa Trend Height
m
Period
s
Dir
31/03:30pm 37.1 N 17 26 1014.4 - 0.0 - Partly cloudy 10 - - - -
31/03:15pm 36.8 N 18 28 1014.6 - 0.0 - - 10 - - - -
31/03:00pm 36.8 N 19 25 1014.9 - 0.0 - - 10 - - - -
31/02:30pm 36.4 N 20 27 1015.6 - 0.0 - - 10 - - - -
31/02:00pm 35.8 N 21 28 1016.0 - 0.0 - - 10 - - - -
31/01:38pm 35.8 N 21 31 1016.6 - 0.0 - - 10 - - - -
31/01:30pm 35.9 N 21 28 1016.7 - 0.0 - - 10 - - - -
31/01:01pm 35.1 NNE 22 32 1017.2 - 0.0 - - 10 - - - -
31/01:00pm 35.7 NNE 22 30 1017.2 - 0.0 - - 10 - - - -
31/12:35pm 34.4 N 21 31 1017.6 - 0.0 - - 10 - - - -
31/12:30pm 35.1 N 22 29 1017.7 - 0.0 - - 10 - - - -
31/12:00pm 33.2 NNE 24 31 1018.0 - 0.0 - - 10 - - - -
31/11:00am 30.9 NNE 25 32 1018.3 - 0.0 - - 10 - - - -
31/10:51am 30.4 NNE 21 31 1018.4 - 0.0 - - 10 - - - -
31/10:30am 29.2 NNE 23 29 1018.7 - 0.0 - - 10 - - - -
31/10:00am 27.1 N 20 26 1019.0 - 0.0 - - 10 - - - -
31/09:30am 24.9 NNE 15 22 1019.0 - 0.0 - - 10 - - - -
31/09:00am 21.0 NNE 11 13 1019.0 - 0.2 - - 10 - - - -
31/08:30am 17.3 NE 9 11 1018.8 - 0.2 - - 10 - - - -
31/08:00am 16.0 NE 10 12 1018.6 - 0.2 - - 10 - - - -
31/07:30am 16.2 NE 10 11 1018.3 - 0.2 - - 10 - - - -
31/07:00am 16.4 NE 10 12 1017.9 - 0.2 - - 10 - - - -
31/06:30am 16.6 NE 10 12 1017.8 - 0.2 - - 10 - - - -
31/06:00am 16.8 NE 10 11 1017.7 - 0.2 - Mostly cloudy 10 - - - -
31/05:30am 17.2 NE 9 11 1017.7 - 0.2 - - 10 - - - -
31/05:00am 18.1 NE 10 11 1017.8 - 0.2 - - 10 - - - -
31/04:30am 17.6 NE 10 11 1018.0 - 0.2 - - 10 - - - -
31/04:00am 18.2 NE 9 11 1018.2 - 0.2 - - 10 - - - -
31/03:30am 18.5 NE 10 12 1018.4 - 0.2 - - 10 - - - -
31/03:00am 17.8 NE 10 12 1018.6 - 0.2 - Mostly cloudy 10 - - - -
31/02:30am 17.4 NE 10 12 1018.8 - 0.2 - - 10 - - - -
31/02:00am 15.7 ENE 9 10 1019.1 - 0.2 - - 10 - - - -
31/01:30am 15.5 ENE 8 8 1019.4 - 0.2 - - 10 - - - -
31/01:00am 15.8 E 5 7 1019.8 - 0.2 - - 10 - - - -
31/12:30am 16.7 ESE 4 5 1019.9 - 0.2 - - 10 - - - -
31/12:00am 17.1 SSE 5 6 1020.3 - 0.2 - - 10 - - - -
 
Date/Time
CDT
Temp

°C
Wind Pressure Rain
since 9am
mm
Weather Cloud Vis
km
Sea
Height
m
Swell
Dir
 
Speed
knots
Gust
knots
hPa Trend Height
m
Period
s
Dir
30/11:30pm 17.4 SSE 6 7 1020.5 - 0.2 - - 10 - - - -
30/11:00pm 18.0 SSE 8 9 1020.5 - 0.2 - - 10 - - - -
30/10:30pm 18.4 SSE 7 10 1020.5 - 0.2 - - 10 - - - -
30/10:00pm 18.6 SSE 8 10 1020.5 - 0.2 - - 10 - - - -
30/09:30pm 18.8 SSE 9 11 1020.2 - 0.2 - - 10 - - - -
30/09:00pm 19.2 SSE 9 11 1020.1 - 0.2 - - 10 - - - -
30/08:30pm 19.5 SSE 9 12 1019.8 - 0.2 - - 10 - - - -
30/08:00pm 20.3 SSE 10 13 1019.6 - 0.2 - - 10 - - - -
30/07:30pm 21.5 SSE 11 14 1019.4 - 0.2 - - 10 - - - -
30/07:00pm 22.4 SE 13 16 1019.5 - 0.2 - - 10 - - - -
30/06:30pm 23.3 SSE 13 16 1019.3 - 0.2 - - 10 - - - -
30/06:00pm 23.9 SSE 14 17 1019.2 - 0.2 - - 10 - - - -
30/05:30pm 25.3 SSE 14 17 1019.0 - 0.2 - - 10 - - - -
30/05:00pm 27.1 SSE 14 16 1018.9 - 0.2 - - 10 - - - -
30/04:30pm 27.6 SSE 13 16 1018.9 - 0.2 - - 10 - - - -
30/04:00pm 28.2 SSE 13 17 1018.9 - 0.2 - - 10 - - - -
30/03:30pm 28.7 S 14 18 1019.2 - 0.2 - - 10 - - - -
30/03:00pm 29.6 SSE 9 14 1019.5 - 0.2 - - 10 - - - -
30/02:30pm 32.5 NNE 9 16 1019.6 - 0.2 - - 10 - - - -
30/02:00pm 32.2 NNE 13 18 1020.0 - 0.2 - - 10 - - - -
30/01:30pm 31.5 NNE 11 20 1020.5 - 0.2 - - 10 - - - -
30/01:00pm 30.7 NNE 12 18 1020.8 - 0.2 - - 10 - - - -
30/12:30pm 30.4 NNE 9 14 1021.2 - 0.2 - - 10 - - - -
30/12:00pm 28.5 NE 10 15 1021.7 - 0.2 - - 10 - - - -
30/11:30am 27.4 ENE 10 13 1022.0 - 0.2 - - 10 - - - -
30/11:00am 24.1 ENE 9 11 1022.4 - 0.2 - - 10 - - - -
30/10:30am 22.1 E 10 13 1022.5 - 0.0 - - 10 - - - -
30/10:00am 21.3 ESE 13 16 1022.5 - 0.0 - - 10 - - - -
30/09:30am 20.1 ESE 13 17 1022.3 - 0.0 - - 10 - - - -
30/09:00am 18.1 ESE 10 14 1021.9 - 0.0 - - 10 - - - -
30/08:30am 16.6 ESE 10 12 1021.7 - 0.0 - - 10 - - - -
30/08:00am 15.6 SE 10 11 1021.5 - 0.0 - - 10 - - - -
30/07:30am 15.4 SE 9 11 1021.3 - 0.0 - - 10 - - - -
30/07:00am 15.4 SE 10 11 1021.1 - 0.0 - - 10 - - - -
30/06:30am 15.2 SE 9 10 1021.0 - 0.0 - - 10 - - - -
30/06:00am 14.7 SSE 9 10 1021.0 - 0.0 - - 10 - - - -
30/05:30am 14.4 SE 9 9 1020.9 - 0.0 - - 10 - - - -
30/05:00am 14.6 SE 9 9 1020.9 - 0.0 - - 10 - - - -
30/04:30am 13.7 SE 8 9 1021.2 - 0.0 - - 10 - - - -
30/04:00am 13.5 SSE 9 9 1021.4 - 0.0 - - 10 - - - -
30/03:30am 13.9 SSE 8 9 1021.7 - 0.0 - - 10 - - - -
30/03:00am 14.3 SSE 8 8 1022.0 - 0.0 - - 10 - - - -
30/02:30am 14.6 SSE 7 9 1022.2 - 0.0 - - 10 - - - -
30/02:00am 14.9 S 9 9 1022.4 - 0.0 - - 10 - - - -
30/01:30am 14.7 SSE 8 9 1022.7 - 0.0 - - 10 - - - -
30/01:00am 15.1 SSE 8 9 1022.8 - 0.0 - - 10 - - - -
30/12:30am 15.5 SSE 7 8 1022.9 - 0.0 - - 10 - - - -
30/12:00am 16.2 SSE 7 8 1023.0 - 0.0 - Mostly cloudy 10 - - - -
 
Date/Time
CDT
Temp

°C
Wind Pressure Rain
since 9am
mm
Weather Cloud Vis
km
Sea
Height
m
Swell
Dir
 
Speed
knots
Gust
knots
hPa Trend Height
m
Period
s
Dir
29/11:30pm 16.9 SSE 7 8 1023.0 - 0.0 - - 10 - - - -
29/11:00pm 17.5 SSE 7 8 1023.0 - 0.0 - - 10 - - - -
29/10:30pm 17.9 SSE 8 9 1022.6 - 0.0 - - 10 - - - -
29/10:00pm 18.2 SSE 9 11 1022.4 - 0.0 - - 10 - - - -
29/09:30pm 18.5 SSE 9 12 1021.9 - 0.0 - - 10 - - - -
29/09:00pm 18.7 SE 10 12 1021.4 - 0.0 - Partly cloudy 10 - - - -
29/08:30pm 19.2 SSE 10 12 1021.3 - 0.0 - - 10 - - - -
29/08:00pm 19.9 SSE 12 15 1021.1 - 0.0 - - 10 - - - -
29/07:30pm 21.0 SSE 14 18 1020.9 - 0.0 - - 10 - - - -
29/07:00pm 22.1 SSE 15 19 1020.7 - 0.0 - - 10 - - - -
29/06:30pm 23.1 SSE 15 19 1020.5 - 0.0 - - 10 - - - -
29/06:00pm 24.1 SSE 15 18 1020.3 - 0.0 - - 10 - - - -
29/05:30pm 24.4 SSE 16 21 1020.1 - 0.0 - - 10 - - - -
29/05:00pm 24.9 SSE 17 21 1020.0 - 0.0 - - 10 - - - -
29/04:30pm 25.6 SSE 17 21 1019.7 - 0.0 - - 10 - - - -
29/04:00pm 25.7 SSE 17 20 1019.9 - 0.0 - - 10 - - - -
29/03:30pm 26.0 SSE 16 20 1020.1 - 0.0 - - 10 - - - -
29/03:00pm 26.7 SSE 15 19 1020.3 - 0.0 - - 10 - - - -
29/02:30pm 27.2 SSE 15 20 1020.6 - 0.0 - - 10 - - - -
29/02:00pm 26.9 SSE 14 18 1021.1 - 0.0 - - 10 - - - -
29/01:30pm 26.5 SSE 10 16 1021.5 - 0.0 - - 10 - - - -
29/01:00pm 27.6 SE 7 13 1021.8 - 0.0 - - 10 - - - -
29/12:30pm 26.7 SSE 5 8 1022.2 - 0.0 - - 10 - - - -
29/12:00pm 25.5 ENE 6 9 1022.5 - 0.0 - Partly cloudy 10 - - - -
29/11:30am 24.4 E 6 8 1022.5 - 0.0 - Partly cloudy 10 - - - -
29/11:00am 23.9 ESE 7 10 1022.5 - 0.0 - - 10 - - - -
29/10:30am 22.4 E 7 10 1022.5 - 0.0 - - 10 - - - -
29/10:00am 21.6 ESE 8 10 1022.3 - 0.0 - - 10 - - - -
29/09:30am 19.9 ESE 8 10 1022.0 - 0.0 - - 10 - - - -
29/09:00am 17.5 ESE 6 7 1021.7 - 0.0 - - 10 - - - -
29/08:30am 13.6 SE 8 10 1021.4 - 0.0 - - 10 - - - -
29/08:00am 12.3 SSE 8 9 1021.1 - 0.0 - - 10 - - - -
29/07:30am 12.2 SSE 7 9 1020.7 - 0.0 - - 10 - - - -
29/07:00am 12.4 SE 6 7 1020.5 - 0.0 - Partly cloudy - - - - -
29/06:30am 12.8 SSE 7 8 1020.3 - 0.0 - - 10 - - - -
29/06:00am 13.6 ENE 4 6 1019.9 - 0.0 - Mostly cloudy 10 - - - -
29/05:30am 14.3 NE 6 7 1019.7 - 0.0 - - 10 - - - -
29/05:00am 14.4 E 4 4 1019.6 - 0.0 - - 10 - - - -
29/04:30am 14.0 ENE 5 6 1019.7 - 0.0 - Partly cloudy 10 - - - -
29/04:00am 14.2 NE 7 8 1019.5 - 0.0 - - 10 - - - -
29/03:30am 14.4 ENE 8 9 1019.5 - 0.0 - - 10 - - - -
29/03:00am 15.1 NE 7 8 1019.8 - 0.0 - Mostly clear 10 - - - -
29/02:30am 15.5 ENE 8 10 1020.2 - 0.0 - Cloudy 10 - - - -
29/02:00am 15.5 E 5 7 1020.4 - 0.0 - Partly cloudy 10 - - - -
29/01:30am 15.4 E 7 7 1020.4 - 0.0 - Partly cloudy 10 - - - -
29/01:00am 15.7 ESE 6 7 1020.7 - 0.0 - Partly cloudy 10 - - - -
29/12:30am 16.1 ENE 7 7 1020.8 - 0.0 - Partly cloudy 10 - - - -
29/12:00am 16.8 ESE 6 6 1020.8 - 0.0 - Cloudy 10 - - - -
 
Date/Time
CDT
Temp

°C
Wind Pressure Rain
since 9am
mm
Weather Cloud Vis
km
Sea
Height
m
Swell
Dir
 
Speed
knots
Gust
knots
hPa Trend Height
m
Period
s
Dir
28/11:30pm 17.0 ESE 5 6 1020.9 - 0.0 - Cloudy 10 - - - -
28/11:00pm 17.1 ESE 5 6 1020.9 - 0.0 - Cloudy 10 - - - -
28/10:30pm 16.8 E 7 9 1021.0 - 0.0 - Partly cloudy 10 - - - -
28/10:00pm 17.1 E 5 6 1021.2 - 0.0 - Partly cloudy 10 - - - -
28/09:30pm 17.2 E 4 5 1020.8 - 0.0 - Partly cloudy 10 - - - -
28/09:00pm 17.8 NE 7 9 1020.7 - 0.0 - Mostly cloudy 10 - - - -
28/08:30pm 18.5 E 5 5 1020.6 - 0.0 - - 10 - - - -
28/08:00pm 19.5 SE 6 8 1020.1 - 0.0 - - 10 - - - -
28/07:30pm 21.2 S 5 7 1020.2 - 0.0 - Partly cloudy 10 - - - -
28/07:00pm 22.3 ENE 1 4 1019.8 - 0.0 - Partly cloudy 10 - - - -
28/06:30pm 22.8 N 3 5 1019.6 - 0.0 - Partly cloudy 10 - - - -
28/06:00pm 22.7 NNW 4 6 1019.4 - 0.0 - Cloudy 10 - - - -
28/05:30pm 21.4 N 5 6 1019.2 - 0.0 - Partly cloudy 10 - - - -
28/05:00pm 20.8 N 8 11 1019.5 - 0.0 - Partly cloudy 10 - - - -
28/04:30pm 20.6 NNW 7 8 1019.9 - 0.0 - Partly cloudy 10 - - - -
28/04:00pm 21.0 N 9 12 1020.0 - 0.0 - Partly cloudy 10 - - - -

Other Formats:

Comma delimited format used in spreadsheet applications
http://www.bom.gov.au/fwo/IDS60701/IDS60701.94651.axf

JavaScript Object Notation format (JSON) in row-major order
http://www.bom.gov.au/fwo/IDS60701/IDS60701.94651.json